Wetterdaten: Woche 24.04.17 - 30.04.17 (KW17)
Datum Zeit Temp. A. Pool Temp. Feuchte A. Luftdruck Regen Wind Richtung Sonnenschein ET UV Solar Taupunkt Windchill Windben Empfang
24.04.2017 00:00 5,1 C 0,0 C 72 % 1023,3 hPa 0,0 l/m 4,5 km/h (1 Bft) W-SW 0,00 h 0,000 mm 0,0 UV-I 0 W/m 0,5 C 5,1 C 6,8 km/h (2 Bft) 95,89 %
24.04.2017 01:00 4,6 C 0,0 C 77 % 1022,9 hPa 0,0 l/m 4,0 km/h (1 Bft) SW 0,00 h 0,025 mm 0,0 UV-I 0 W/m 0,9 C 4,6 C 6,1 km/h (2 Bft) 96,88 %
24.04.2017 02:00 3,8 C 0,0 C 84 % 1022,4 hPa 0,0 l/m 3,3 km/h (1 Bft) S-SW 0,00 h 0,000 mm 0,0 UV-I 0 W/m 1,3 C 3,8 C 5,4 km/h (1 Bft) 97,18 %
24.04.2017 03:00 2,7 C 0,0 C 88 % 1021,9 hPa 0,0 l/m 2,2 km/h (1 Bft) S 0,00 h 0,000 mm 0,0 UV-I 0 W/m 1,0 C 2,7 C 3,9 km/h (1 Bft) 98,60 %
24.04.2017 04:00 1,2 C 0,0 C 92 % 1021,5 hPa 0,0 l/m 1,0 km/h (0 Bft) S 0,00 h 0,000 mm 0,0 UV-I 0 W/m -0,0 C 1,2 C 2,2 km/h (1 Bft) 94,98 %
24.04.2017 05:00 0,4 C 0,0 C 93 % 1021,1 hPa 0,0 l/m 1,0 km/h (0 Bft) S 0,00 h 0,000 mm 0,0 UV-I 6 W/m -0,6 C 0,4 C 2,0 km/h (1 Bft) 97,38 %
24.04.2017 06:00 0,2 C 0,0 C 94 % 1020,8 hPa 0,0 l/m 1,1 km/h (0 Bft) S 0,87 h 0,000 mm 0,0 UV-I 54 W/m -0,6 C 0,2 C 2,5 km/h (1 Bft) 96,72 %
24.04.2017 07:00 1,9 C 0,0 C 93 % 1020,7 hPa 0,0 l/m 1,7 km/h (1 Bft) NO 1,00 h 0,026 mm 0,3 UV-I 199 W/m 0,9 C 1,9 C 3,3 km/h (1 Bft) 94,40 %
24.04.2017 08:00 4,7 C 0,0 C 84 % 1020,6 hPa 0,0 l/m 3,9 km/h (1 Bft) NO 1,00 h 0,076 mm 0,8 UV-I 383 W/m 2,1 C 4,7 C 6,6 km/h (2 Bft) 96,60 %
24.04.2017 09:00 6,7 C 0,0 C 71 % 1019,9 hPa 0,0 l/m 6,6 km/h (2 Bft) O-NO 1,00 h 0,152 mm 1,6 UV-I 554 W/m 1,8 C 6,1 C 11,4 km/h (2 Bft) 97,64 %
24.04.2017 10:00 8,3 C 0,0 C 63 % 1019,4 hPa 0,0 l/m 9,6 km/h (2 Bft) NO 1,00 h 0,254 mm 2,6 UV-I 694 W/m 1,7 C 6,1 C 15,5 km/h (3 Bft) 96,63 %
24.04.2017 11:00 9,4 C 0,0 C 58 % 1018,7 hPa 0,0 l/m 9,2 km/h (2 Bft) NO 1,00 h 0,331 mm 3,6 UV-I 795 W/m 1,6 C 7,5 C 15,2 km/h (3 Bft) 95,42 %
24.04.2017 12:00 10,6 C 0,0 C 58 % 1017,8 hPa 0,0 l/m 7,6 km/h (2 Bft) NO 1,00 h 0,406 mm 4,2 UV-I 848 W/m 2,7 C 9,4 C 13,8 km/h (3 Bft) 93,08 %
24.04.2017 13:00 11,5 C 0,0 C 58 % 1016,7 hPa 0,0 l/m 3,9 km/h (1 Bft) NO 1,00 h 0,432 mm 4,4 UV-I 846 W/m 3,5 C 11,3 C 8,2 km/h (2 Bft) 95,09 %
24.04.2017 14:00 12,8 C 0,0 C 57 % 1015,7 hPa 0,0 l/m 4,5 km/h (1 Bft) NO 1,00 h 0,432 mm 3,9 UV-I 791 W/m 4,4 C 12,6 C 8,2 km/h (2 Bft) 94,95 %
24.04.2017 15:00 13,6 C 0,0 C 54 % 1014,7 hPa 0,0 l/m 3,9 km/h (1 Bft) NO 1,00 h 0,406 mm 2,9 UV-I 690 W/m 4,4 C 13,6 C 7,1 km/h (2 Bft) 95,45 %
24.04.2017 16:00 14,6 C 0,0 C 53 % 1013,8 hPa 0,0 l/m 4,0 km/h (1 Bft) NO 1,00 h 0,381 mm 1,9 UV-I 532 W/m 4,9 C 14,5 C 6,7 km/h (2 Bft) 93,77 %
24.04.2017 17:00 14,7 C 0,0 C 52 % 1013,0 hPa 0,0 l/m 2,7 km/h (1 Bft) N-NO 1,00 h 0,305 mm 1,0 UV-I 372 W/m 5,0 C 14,7 C 5,1 km/h (1 Bft) 94,89 %
24.04.2017 18:00 14,3 C 0,0 C 53 % 1012,4 hPa 0,0 l/m 1,5 km/h (1 Bft) N-NW 0,93 h 0,203 mm 0,5 UV-I 190 W/m 4,8 C 14,3 C 3,8 km/h (1 Bft) 94,52 %
24.04.2017 19:00 12,5 C 0,0 C 61 % 1012,0 hPa 0,0 l/m 2,2 km/h (1 Bft) N-NO 0,37 h 0,102 mm 0,0 UV-I 43 W/m 5,1 C 12,5 C 3,8 km/h (1 Bft) 96,58 %
24.04.2017 20:00 10,4 C 0,0 C 66 % 1011,6 hPa 0,0 l/m 2,1 km/h (1 Bft) N-NO 0,00 h 0,025 mm 0,0 UV-I 6 W/m 4,2 C 10,4 C 3,3 km/h (1 Bft) 95,54 %
24.04.2017 21:00 8,5 C 0,0 C 74 % 1011,3 hPa 0,0 l/m 1,8 km/h (1 Bft) N-NO 0,00 h 0,025 mm 0,0 UV-I 0 W/m 4,1 C 8,5 C 2,9 km/h (1 Bft) 97,26 %
24.04.2017 22:00 7,0 C 0,0 C 81 % 1010,9 hPa 0,0 l/m 1,2 km/h (1 Bft) NO 0,00 h 0,000 mm 0,0 UV-I 0 W/m 4,0 C 7,0 C 2,3 km/h (1 Bft) 96,30 %
24.04.2017 23:00 6,3 C 0,0 C 84 % 1010,3 hPa 0,0 l/m 1,8 km/h (1 Bft) O-NO 0,00 h 0,000 mm 0,0 UV-I 0 W/m 3,8 C 6,3 C 3,1 km/h (1 Bft) 95,99 %
25.04.2017 00:00 5,5 C 0,0 C 88 % 1009,8 hPa 0,0 l/m 1,4 km/h (1 Bft) O-NO 0,00 h 0,000 mm 0,0 UV-I 0 W/m 3,6 C 5,5 C 3,0 km/h (1 Bft) 97,94 %
25.04.2017 01:00 4,8 C 0,0 C 90 % 1009,3 hPa 0,0 l/m 1,1 km/h (0 Bft) O 0,00 h 0,000 mm 0,0 UV-I 0 W/m 3,3 C 4,8 C 2,6 km/h (1 Bft) 96,59 %
25.04.2017 02:00 4,1 C 0,0 C 92 % 1008,6 hPa 0,0 l/m 1,4 km/h (1 Bft) O 0,00 h 0,000 mm 0,0 UV-I 0 W/m 2,9 C 4,1 C 3,1 km/h (1 Bft) 96,10 %
25.04.2017 03:00 3,7 C 0,0 C 93 % 1008,1 hPa 0,0 l/m 0,9 km/h (0 Bft) O 0,00 h 0,000 mm 0,0 UV-I 0 W/m 2,7 C 3,7 C 1,9 km/h (1 Bft) 97,42 %
25.04.2017 04:00 3,5 C 0,0 C 94 % 1007,6 hPa 0,0 l/m 0,4 km/h (0 Bft) O 0,00 h 0,000 mm 0,0 UV-I 0 W/m 2,6 C 3,5 C 1,3 km/h (1 Bft) 97,65 %
25.04.2017 05:00 2,7 C 0,0 C 94 % 1007,0 hPa 0,0 l/m 1,8 km/h (1 Bft) O-SO 0,00 h 0,000 mm 0,0 UV-I 5 W/m 1,9 C 2,7 C 3,3 km/h (1 Bft) 95,79 %
25.04.2017 06:00 2,5 C 0,0 C 95 % 1006,8 hPa 0,0 l/m 0,3 km/h (0 Bft) O-SO 0,33 h 0,000 mm 0,0 UV-I 41 W/m 1,8 C 2,5 C 0,9 km/h (0 Bft) 96,05 %
25.04.2017 07:00 4,6 C 0,0 C 93 % 1007,0 hPa 0,0 l/m 0,8 km/h (0 Bft) O-SO 0,87 h 0,025 mm 0,0 UV-I 197 W/m 3,6 C 4,6 C 2,5 km/h (1 Bft) 97,53 %
25.04.2017 08:00 8,1 C 0,0 C 82 % 1007,3 hPa 0,0 l/m 4,2 km/h (1 Bft) O-SO 0,73 h 0,077 mm 0,8 UV-I 345 W/m 5,3 C 7,8 C 6,8 km/h (2 Bft) 95,81 %
25.04.2017 09:00 10,3 C 0,0 C 77 % 1007,6 hPa 0,0 l/m 2,1 km/h (1 Bft) NO 0,77 h 0,152 mm 1,4 UV-I 438 W/m 6,4 C 10,3 C 4,7 km/h (1 Bft) 95,82 %
25.04.2017 10:00 13,0 C 0,0 C 69 % 1007,5 hPa 0,0 l/m 1,7 km/h (1 Bft) NO 0,77 h 0,203 mm 2,4 UV-I 543 W/m 7,4 C 13,0 C 4,3 km/h (1 Bft) 96,02 %
25.04.2017 11:00 15,1 C 0,0 C 63 % 1007,6 hPa 0,0 l/m 4,0 km/h (1 Bft) NW 0,90 h 0,280 mm 3,5 UV-I 712 W/m 8,2 C 15,1 C 8,8 km/h (2 Bft) 97,61 %
25.04.2017 12:00 16,9 C 0,0 C 60 % 1007,1 hPa 0,0 l/m 5,3 km/h (1 Bft) NW 0,90 h 0,406 mm 4,0 UV-I 772 W/m 9,0 C 16,8 C 12,5 km/h (3 Bft) 95,67 %
25.04.2017 13:00 17,4 C 0,0 C 60 % 1006,8 hPa 0,0 l/m 5,9 km/h (2 Bft) NW 0,83 h 0,432 mm 3,9 UV-I 743 W/m 9,4 C 17,1 C 12,6 km/h (3 Bft) 97,25 %
25.04.2017 14:00 16,9 C 0,0 C 63 % 1006,3 hPa 0,0 l/m 5,3 km/h (1 Bft) NW 0,73 h 0,457 mm 3,1 UV-I 593 W/m 9,8 C 16,8 C 11,5 km/h (2 Bft) 94,68 %
25.04.2017 15:00 16,9 C 0,0 C 63 % 1005,6 hPa 0,0 l/m 4,9 km/h (1 Bft) NW 0,67 h 0,356 mm 2,1 UV-I 464 W/m 9,7 C 16,9 C 11,6 km/h (2 Bft) 98,20 %
25.04.2017 16:00 16,1 C 6,7 C 62 % 1005,2 hPa 0,0 l/m 5,8 km/h (2 Bft) NW 0,27 h 0,279 mm 0,9 UV-I 228 W/m 8,9 C 15,9 C 12,9 km/h (3 Bft) 97,07 %
25.04.2017 17:00 14,7 C 15,3 C 66 % 1005,2 hPa 0,0 l/m 4,9 km/h (1 Bft) W-NW 0,00 h 0,152 mm 0,0 UV-I 53 W/m 8,4 C 14,5 C 11,5 km/h (2 Bft) 98,70 %
25.04.2017 18:00 11,9 C 12,1 C 85 % 1005,9 hPa 2,0 l/m 6,4 km/h (2 Bft) W-NW 0,00 h 0,051 mm 0,0 UV-I 63 W/m 9,4 C 10,8 C 10,8 km/h (2 Bft) 96,62 %
25.04.2017 19:00 11,3 C 11,6 C 92 % 1005,6 hPa 0,0 l/m 1,2 km/h (1 Bft) W-NW 0,00 h 0,051 mm 0,0 UV-I 18 W/m 10,0 C 11,3 C 3,0 km/h (1 Bft) 98,30 %
25.04.2017 20:00 10,9 C 10,8 C 93 % 1005,9 hPa 0,0 l/m 1,3 km/h (1 Bft) S-SW 0,00 h 0,000 mm 0,0 UV-I 4 W/m 9,8 C 10,9 C 3,3 km/h (1 Bft) 98,04 %
25.04.2017 21:00 10,7 C 10,6 C 94 % 1006,2 hPa 0,0 l/m 0,4 km/h (0 Bft) S-SW 0,00 h 0,000 mm 0,0 UV-I 0 W/m 9,8 C 10,7 C 0,9 km/h (0 Bft) 99,17 %
25.04.2017 22:00 10,3 C 10,5 C 95 % 1006,0 hPa 0,0 l/m 0,5 km/h (0 Bft) S-SW 0,00 h 0,000 mm 0,0 UV-I 0 W/m 9,6 C 10,3 C 0,9 km/h (0 Bft) 96,29 %
25.04.2017 23:00 10,1 C 10,0 C 96 % 1005,9 hPa 0,0 l/m 1,1 km/h (0 Bft) S-SW 0,00 h 0,000 mm 0,0 UV-I 0 W/m 9,5 C 10,1 C 2,1 km/h (1 Bft) 98,65 %
26.04.2017 00:00 9,9 C 10,0 C 96 % 1005,6 hPa 0,0 l/m 1,3 km/h (1 Bft) S-SW 0,00 h 0,000 mm 0,0 UV-I 0 W/m 9,3 C 9,9 C 3,4 km/h (1 Bft) 97,83 %
26.04.2017 01:00 9,3 C 9,6 C 93 % 1005,2 hPa 0,0 l/m 5,9 km/h (2 Bft) N-NO 0,00 h 0,000 mm 0,0 UV-I 0 W/m 8,2 C 8,5 C 10,5 km/h (2 Bft) 99,55 %
26.04.2017 02:00 8,7 C 10,4 C 88 % 1004,4 hPa 0,0 l/m 6,5 km/h (2 Bft) O-NO 0,00 h 0,000 mm 0,0 UV-I 0 W/m 6,8 C 7,7 C 10,3 km/h (2 Bft) 95,64 %
26.04.2017 03:00 8,4 C 10,6 C 88 % 1004,5 hPa 0,0 l/m 5,0 km/h (1 Bft) N-NO 0,00 h 0,000 mm 0,0 UV-I 0 W/m 6,4 C 8,1 C 9,9 km/h (2 Bft) 98,78 %
26.04.2017 04:00 8,2 C 10,6 C 88 % 1004,5 hPa 0,0 l/m 3,9 km/h (1 Bft) N-NO 0,00 h 0,000 mm 0,0 UV-I 0 W/m 6,4 C 8,2 C 6,4 km/h (2 Bft) 98,26 %
26.04.2017 05:00 8,3 C 10,6 C 87 % 1004,3 hPa 0,0 l/m 5,1 km/h (1 Bft) O-NO 0,00 h 0,000 mm 0,0 UV-I 0 W/m 6,3 C 8,3 C 7,6 km/h (2 Bft) 98,13 %
26.04.2017 06:00 8,0 C 10,6 C 89 % 1004,2 hPa 0,0 l/m 3,2 km/h (1 Bft) NO 0,00 h 0,000 mm 0,0 UV-I 20 W/m 6,2 C 8,0 C 5,4 km/h (1 Bft) 96,19 %
26.04.2017 07:00 8,5 C 10,6 C 87 % 1004,6 hPa 0,0 l/m 4,7 km/h (1 Bft) N-NO 0,00 h 0,025 mm 0,0 UV-I 52 W/m 6,4 C 8,4 C 7,9 km/h (2 Bft) 96,16 %
26.04.2017 08:00 8,9 C 10,6 C 85 % 1005,0 hPa 0,0 l/m 1,0 km/h (0 Bft) N-NO 0,00 h 0,026 mm 0,0 UV-I 83 W/m 6,6 C 8,9 C 3,4 km/h (1 Bft) 98,34 %
26.04.2017 09:00 9,4 C 10,6 C 85 % 1005,1 hPa 0,0 l/m 2,7 km/h (1 Bft) N-NO 0,00 h 0,051 mm 0,5 UV-I 117 W/m 7,0 C 9,3 C 5,5 km/h (1 Bft) 97,58 %
26.04.2017 10:00 9,7 C 10,6 C 84 % 1005,3 hPa 0,0 l/m 7,4 km/h (2 Bft) NO 0,00 h 0,050 mm 0,7 UV-I 141 W/m 7,2 C 8,7 C 11,7 km/h (2 Bft) 95,86 %
26.04.2017 11:00 9,4 C 10,6 C 85 % 1005,6 hPa 0,0 l/m 8,9 km/h (2 Bft) NO 0,00 h 0,077 mm 0,9 UV-I 161 W/m 7,0 C 7,6 C 13,9 km/h (3 Bft) 96,49 %
26.04.2017 12:00 9,7 C 10,6 C 84 % 1005,7 hPa 0,0 l/m 7,6 km/h (2 Bft) NO 0,00 h 0,076 mm 1,6 UV-I 269 W/m 7,1 C 8,5 C 12,4 km/h (3 Bft) 98,80 %
26.04.2017 13:00 9,9 C 10,6 C 83 % 1005,9 hPa 0,0 l/m 3,7 km/h (1 Bft) NO 0,00 h 0,127 mm 1,1 UV-I 184 W/m 7,2 C 9,7 C 7,1 km/h (2 Bft) 97,79 %
26.04.2017 14:00 9,3 C 10,6 C 85 % 1006,8 hPa 0,0 l/m 2,5 km/h (1 Bft) NW 0,00 h 0,101 mm 0,5 UV-I 83 W/m 6,9 C 9,3 C 6,0 km/h (2 Bft) 97,84 %
26.04.2017 15:00 8,7 C 10,6 C 87 % 1007,4 hPa 0,0 l/m 5,8 km/h (2 Bft) W 0,00 h 0,051 mm 0,4 UV-I 75 W/m 6,7 C 8,4 C 11,7 km/h (2 Bft) 96,54 %
26.04.2017 16:00 7,8 C 10,6 C 93 % 1008,1 hPa 0,6 l/m 1,8 km/h (1 Bft) W 0,00 h 0,051 mm 0,0 UV-I 42 W/m 6,8 C 7,8 C 4,6 km/h (1 Bft) 97,72 %
26.04.2017 17:00 7,4 C 10,6 C 95 % 1008,5 hPa 0,8 l/m 0,4 km/h (0 Bft) NW 0,00 h 0,025 mm 0,0 UV-I 28 W/m 6,6 C 7,4 C 1,9 km/h (1 Bft) 96,06 %
26.04.2017 18:00 7,2 C 10,6 C 96 % 1008,9 hPa 1,0 l/m 0,4 km/h (0 Bft) NW 0,00 h 0,000 mm 0,0 UV-I 30 W/m 6,5 C 7,2 C 1,9 km/h (1 Bft) 96,98 %
26.04.2017 19:00 7,0 C 10,6 C 96 % 1009,5 hPa 0,6 l/m 0,2 km/h (0 Bft) N-NW 0,00 h 0,000 mm 0,0 UV-I 14 W/m 6,4 C 7,0 C 1,0 km/h (0 Bft) 96,18 %
26.04.2017 20:00 6,7 C 10,1 C 96 % 1009,9 hPa 0,0 l/m 0,6 km/h (0 Bft) O-NO 0,00 h 0,000 mm 0,0 UV-I 5 W/m 6,1 C 6,7 C 1,7 km/h (1 Bft) 97,53 %
26.04.2017 21:00 6,3 C 10,0 C 96 % 1010,2 hPa 0,2 l/m 5,2 km/h (1 Bft) O-NO 0,00 h 0,000 mm 0,0 UV-I 0 W/m 5,7 C 6,2 C 7,6 km/h (2 Bft) 96,43 %
26.04.2017 22:00 6,0 C 10,0 C 96 % 1010,3 hPa 1,2 l/m 4,0 km/h (1 Bft) O-NO 0,00 h 0,000 mm 0,0 UV-I 0 W/m 5,4 C 6,0 C 6,7 km/h (2 Bft) 96,28 %
26.04.2017 23:00 5,6 C 10,0 C 96 % 1010,5 hPa 1,2 l/m 3,6 km/h (1 Bft) O-NO 0,00 h 0,000 mm 0,0 UV-I 0 W/m 5,0 C 5,6 C 5,9 km/h (2 Bft) 97,27 %
27.04.2017 00:00 5,2 C 10,0 C 95 % 1010,7 hPa 0,6 l/m 2,9 km/h (1 Bft) O-NO 0,00 h 0,000 mm 0,0 UV-I 0 W/m 4,6 C 5,2 C 4,9 km/h (1 Bft) 98,66 %
27.04.2017 01:00 5,1 C 10,0 C 96 % 1010,5 hPa 1,0 l/m 1,7 km/h (1 Bft) O-NO 0,00 h 0,000 mm 0,0 UV-I 0 W/m 4,6 C 5,1 C 3,5 km/h (1 Bft) 96,22 %
27.04.2017 02:00 5,1 C 10,0 C 96 % 1010,4 hPa 0,8 l/m 0,6 km/h (0 Bft) NO 0,00 h 0,000 mm 0,0 UV-I 0 W/m 4,5 C 5,1 C 2,0 km/h (1 Bft) 97,03 %
27.04.2017 03:00 4,6 C 10,0 C 97 % 1010,3 hPa 0,6 l/m 0,4 km/h (0 Bft) NW 0,00 h 0,000 mm 0,0 UV-I 0 W/m 4,1 C 4,6 C 1,9 km/h (1 Bft) 97,17 %
27.04.2017 04:00 4,3 C 10,0 C 96 % 1010,1 hPa 0,2 l/m 0,7 km/h (0 Bft) N 0,00 h 0,000 mm 0,0 UV-I 0 W/m 3,7 C 4,3 C 1,7 km/h (1 Bft) 98,62 %
27.04.2017 05:00 4,3 C 10,0 C 97 % 1010,2 hPa 0,8 l/m 0,6 km/h (0 Bft) N-NO 0,00 h 0,000 mm 0,0 UV-I 0 W/m 3,9 C 4,3 C 2,5 km/h (1 Bft) 95,12 %
27.04.2017 06:00 4,2 C 9,9 C 97 % 1010,6 hPa 0,4 l/m 1,2 km/h (1 Bft) N-NO 0,00 h 0,000 mm 0,0 UV-I 10 W/m 3,8 C 4,2 C 3,9 km/h (1 Bft) 97,51 %
27.04.2017 07:00 4,3 C 9,6 C 97 % 1011,1 hPa 0,2 l/m 0,6 km/h (0 Bft) N-NO 0,00 h 0,000 mm 0,0 UV-I 31 W/m 3,8 C 4,3 C 2,6 km/h (1 Bft) 95,66 %
27.04.2017 08:00 4,3 C 9,5 C 97 % 1011,9 hPa 0,0 l/m 0,6 km/h (0 Bft) W-NW 0,00 h 0,000 mm 0,0 UV-I 41 W/m 3,8 C 4,3 C 2,2 km/h (1 Bft) 97,28 %
27.04.2017 09:00 4,2 C 9,4 C 96 % 1012,4 hPa 0,2 l/m 2,5 km/h (1 Bft) W 0,00 h 0,025 mm 0,8 UV-I 120 W/m 3,7 C 4,2 C 6,3 km/h (2 Bft) 94,70 %
27.04.2017 10:00 4,6 C 9,5 C 95 % 1012,9 hPa 0,0 l/m 3,8 km/h (1 Bft) W 0,00 h 0,051 mm 0,7 UV-I 138 W/m 3,9 C 4,6 C 8,0 km/h (2 Bft) 98,09 %
27.04.2017 11:00 4,6 C 9,8 C 95 % 1013,4 hPa 0,0 l/m 4,1 km/h (1 Bft) W 0,00 h 0,051 mm 0,8 UV-I 128 W/m 3,8 C 4,6 C 8,1 km/h (2 Bft) 96,71 %
27.04.2017 12:00 5,0 C 10,0 C 93 % 1013,3 hPa 0,0 l/m 4,5 km/h (1 Bft) W-SW 0,00 h 0,051 mm 1,0 UV-I 164 W/m 4,0 C 4,9 C 8,0 km/h (2 Bft) 97,65 %
27.04.2017 13:00 5,3 C 10,0 C 92 % 1013,1 hPa 0,0 l/m 2,6 km/h (1 Bft) W-NW 0,00 h 0,076 mm 1,1 UV-I 165 W/m 4,2 C 5,3 C 5,4 km/h (1 Bft) 95,86 %
27.04.2017 14:00 5,6 C 10,0 C 90 % 1013,4 hPa 0,0 l/m 3,3 km/h (1 Bft) W 0,00 h 0,076 mm 0,9 UV-I 160 W/m 4,1 C 5,6 C 6,2 km/h (2 Bft) 97,73 %
27.04.2017 15:00 5,7 C 10,0 C 88 % 1013,4 hPa 0,0 l/m 1,5 km/h (1 Bft) W-NW 0,00 h 0,076 mm 0,5 UV-I 108 W/m 4,0 C 5,7 C 3,9 km/h (1 Bft) 96,50 %
27.04.2017 16:00 5,7 C 10,0 C 89 % 1013,3 hPa 0,0 l/m 0,8 km/h (0 Bft) W-NW 0,00 h 0,051 mm 0,0 UV-I 71 W/m 4,0 C 5,7 C 2,5 km/h (1 Bft) 95,70 %
27.04.2017 17:00 5,4 C 10,0 C 93 % 1013,1 hPa 0,0 l/m 0,6 km/h (0 Bft) N 0,00 h 0,026 mm 0,0 UV-I 67 W/m 4,3 C 5,4 C 2,1 km/h (1 Bft) 93,38 %
27.04.2017 18:00 5,0 C 10,0 C 95 % 1012,8 hPa 0,2 l/m 0,8 km/h (0 Bft) N-NO 0,00 h 0,025 mm 0,0 UV-I 15 W/m 4,3 C 5,0 C 2,6 km/h (1 Bft) 96,41 %
27.04.2017 19:00 4,9 C 9,9 C 95 % 1012,7 hPa 1,0 l/m 3,2 km/h (1 Bft) N-NO 0,00 h 0,000 mm 0,0 UV-I 8 W/m 4,1 C 4,9 C 6,0 km/h (2 Bft) 97,05 %
27.04.2017 20:00 4,6 C 9,4 C 95 % 1012,9 hPa 1,0 l/m 3,1 km/h (1 Bft) NO 0,00 h 0,000 mm 0,0 UV-I 0 W/m 3,8 C 4,6 C 5,5 km/h (1 Bft) 95,10 %
27.04.2017 21:00 4,4 C 9,4 C 96 % 1012,8 hPa 1,8 l/m 1,6 km/h (1 Bft) NO 0,00 h 0,000 mm 0,0 UV-I 0 W/m 3,8 C 4,4 C 3,5 km/h (1 Bft) 95,56 %
27.04.2017 22:00 4,1 C 9,4 C 96 % 1012,3 hPa 1,0 l/m 2,1 km/h (1 Bft) N-NO 0,00 h 0,000 mm 0,0 UV-I 0 W/m 3,5 C 4,1 C 5,8 km/h (2 Bft) 98,30 %
27.04.2017 23:00 3,8 C 9,4 C 96 % 1011,5 hPa 0,6 l/m 0,7 km/h (0 Bft) N 0,00 h 0,000 mm 0,0 UV-I 0 W/m 3,3 C 3,8 C 3,1 km/h (1 Bft) 96,86 %
28.04.2017 00:00 3,5 C 9,4 C 97 % 1010,9 hPa 0,8 l/m 1,4 km/h (1 Bft) N-NW 0,00 h 0,000 mm 0,0 UV-I 0 W/m 3,1 C 3,5 C 4,2 km/h (1 Bft) 95,54 %
28.04.2017 01:00 3,2 C 9,4 C 97 % 1010,7 hPa 2,2 l/m 1,3 km/h (1 Bft) NW 0,00 h 0,000 mm 0,0 UV-I 0 W/m 2,8 C 3,2 C 3,9 km/h (1 Bft) 97,35 %
28.04.2017 02:00 1,6 C 9,3 C 96 % 1010,4 hPa 2,4 l/m 1,6 km/h (1 Bft) W-SW 0,00 h 0,000 mm 0,0 UV-I 0 W/m 1,1 C 1,6 C 4,0 km/h (1 Bft) 98,09 %
28.04.2017 03:00 0,4 C 8,9 C 97 % 1010,2 hPa 0,0 l/m 0,0 km/h (0 Bft) N 0,00 h 0,000 mm 0,0 UV-I 0 W/m -0,1 C 0,4 C 0,0 km/h (0 Bft) 96,50 %
28.04.2017 04:00 0,3 C 8,5 C 97 % 1009,6 hPa 0,0 l/m 0,6 km/h (0 Bft) W 0,00 h 0,000 mm 0,0 UV-I 0 W/m -0,1 C 0,3 C 1,2 km/h (1 Bft) 96,35 %
28.04.2017 05:00 0,4 C 8,3 C 97 % 1009,3 hPa 0,0 l/m 1,4 km/h (1 Bft) SW 0,00 h 0,000 mm 0,0 UV-I 0 W/m -0,0 C 0,4 C 3,0 km/h (1 Bft) 96,42 %
28.04.2017 06:00 0,4 C 8,4 C 97 % 1009,5 hPa 0,0 l/m 1,7 km/h (1 Bft) SW 0,00 h 0,000 mm 0,0 UV-I 9 W/m 0,0 C 0,4 C 3,5 km/h (1 Bft) 95,59 %
28.04.2017 07:00 0,7 C 8,3 C 98 % 1009,6 hPa 0,2 l/m 3,3 km/h (1 Bft) SW 0,00 h 0,000 mm 0,0 UV-I 19 W/m 0,4 C 0,7 C 5,4 km/h (1 Bft) 96,68 %
28.04.2017 08:00 1,0 C 8,5 C 97 % 1009,5 hPa 0,0 l/m 4,1 km/h (1 Bft) SW 0,00 h 0,000 mm 0,0 UV-I 58 W/m 0,7 C 1,0 C 6,8 km/h (2 Bft) 96,84 %
28.04.2017 09:00 1,5 C 8,9 C 98 % 1009,6 hPa 1,0 l/m 3,5 km/h (1 Bft) W-SW 0,00 h 0,025 mm 0,7 UV-I 159 W/m 1,2 C 1,5 C 6,3 km/h (2 Bft) 99,47 %
28.04.2017 10:00 2,2 C 8,9 C 97 % 1009,4 hPa 1,4 l/m 3,9 km/h (1 Bft) SW 0,00 h 0,051 mm 0,5 UV-I 90 W/m 1,8 C 2,2 C 6,6 km/h (2 Bft) 97,25 %
28.04.2017 11:00 1,7 C 8,9 C 97 % 1009,6 hPa 2,4 l/m 4,9 km/h (1 Bft) SW 0,00 h 0,026 mm 0,8 UV-I 110 W/m 1,3 C 1,7 C 7,8 km/h (2 Bft) 97,62 %
28.04.2017 12:00 1,6 C 9,0 C 97 % 1009,8 hPa 2,0 l/m 5,8 km/h (2 Bft) W-SW 0,00 h 0,050 mm 0,8 UV-I 156 W/m 1,1 C 1,2 C 10,7 km/h (2 Bft) 98,40 %
28.04.2017 13:00 2,0 C 9,4 C 97 % 1010,1 hPa 2,0 l/m 7,2 km/h (2 Bft) W-SW 0,00 h 0,051 mm 1,1 UV-I 216 W/m 1,6 C 1,0 C 11,9 km/h (2 Bft) 96,98 %
28.04.2017 14:00 2,6 C 9,4 C 97 % 1010,7 hPa 1,2 l/m 7,6 km/h (2 Bft) W-SW 0,00 h 0,076 mm 0,9 UV-I 177 W/m 2,1 C 1,3 C 12,7 km/h (3 Bft) 95,18 %
28.04.2017 15:00 2,9 C 9,0 C 96 % 1011,1 hPa 0,2 l/m 11,7 km/h (2 Bft) W-SW 0,00 h 0,077 mm 0,8 UV-I 164 W/m 2,3 C -1,3 C 17,5 km/h (3 Bft) 97,21 %
28.04.2017 16:00 2,8 C 8,9 C 96 % 1011,8 hPa 0,2 l/m 11,2 km/h (2 Bft) W-SW 0,00 h 0,050 mm 0,0 UV-I 63 W/m 2,2 C -1,2 C 18,0 km/h (3 Bft) 98,52 %
28.04.2017 17:00 2,8 C 8,9 C 96 % 1012,4 hPa 0,4 l/m 14,3 km/h (3 Bft) W-SW 0,00 h 0,026 mm 0,0 UV-I 101 W/m 2,2 C -3,2 C 21,1 km/h (4 Bft) 96,74 %
28.04.2017 18:00 2,8 C 8,9 C 95 % 1013,1 hPa 0,2 l/m 14,7 km/h (3 Bft) W-SW 0,00 h 0,051 mm 0,0 UV-I 55 W/m 2,1 C -3,4 C 22,0 km/h (4 Bft) 95,01 %
28.04.2017 19:00 2,7 C 8,9 C 95 % 1013,9 hPa 0,6 l/m 13,8 km/h (3 Bft) W-SW 0,00 h 0,025 mm 0,0 UV-I 11 W/m 2,0 C -2,9 C 21,6 km/h (4 Bft) 97,45 %
28.04.2017 20:00 2,3 C 8,9 C 96 % 1014,9 hPa 1,2 l/m 15,5 km/h (3 Bft) W-SW 0,00 h 0,000 mm 0,0 UV-I 4 W/m 1,7 C -4,4 C 23,7 km/h (4 Bft) 96,55 %
28.04.2017 21:00 2,4 C 8,9 C 96 % 1016,0 hPa 0,4 l/m 16,9 km/h (3 Bft) SW 0,00 h 0,000 mm 0,0 UV-I 0 W/m 1,9 C -5,0 C 25,0 km/h (4 Bft) 97,20 %
28.04.2017 22:00 2,3 C 8,4 C 96 % 1016,7 hPa 0,2 l/m 14,2 km/h (3 Bft) W-SW 0,00 h 0,000 mm 0,0 UV-I 0 W/m 1,8 C -3,6 C 21,3 km/h (4 Bft) 96,44 %
28.04.2017 23:00 2,4 C 8,3 C 96 % 1017,2 hPa 0,2 l/m 12,7 km/h (3 Bft) SW 0,00 h 0,000 mm 0,0 UV-I 0 W/m 1,8 C -2,7 C 19,6 km/h (3 Bft) 98,08 %
29.04.2017 00:00 2,7 C 8,3 C 95 % 1017,7 hPa 0,0 l/m 11,4 km/h (2 Bft) W-SW 0,00 h 0,000 mm 0,0 UV-I 0 W/m 2,0 C -1,4 C 18,1 km/h (3 Bft) 94,29 %
29.04.2017 01:00 2,9 C 8,3 C 95 % 1017,9 hPa 0,2 l/m 12,4 km/h (3 Bft) SW 0,00 h 0,000 mm 0,0 UV-I 0 W/m 2,1 C -1,9 C 18,4 km/h (3 Bft) 97,62 %
29.04.2017 02:00 2,9 C 8,3 C 95 % 1018,0 hPa 1,0 l/m 10,3 km/h (2 Bft) SW 0,00 h 0,000 mm 0,0 UV-I 0 W/m 2,2 C -0,4 C 16,0 km/h (3 Bft) 95,05 %
29.04.2017 03:00 3,0 C 8,3 C 95 % 1018,2 hPa 0,0 l/m 9,0 km/h (2 Bft) SW 0,00 h 0,000 mm 0,0 UV-I 0 W/m 2,3 C 0,8 C 14,1 km/h (3 Bft) 98,22 %
29.04.2017 04:00 3,1 C 8,3 C 95 % 1018,4 hPa 0,4 l/m 8,7 km/h (2 Bft) W-SW 0,00 h 0,000 mm 0,0 UV-I 0 W/m 2,4 C 1,0 C 13,6 km/h (3 Bft) 96,87 %
29.04.2017 05:00 3,3 C 8,3 C 95 % 1018,8 hPa 0,0 l/m 5,6 km/h (1 Bft) SW 0,00 h 0,000 mm 0,0 UV-I 5 W/m 2,5 C 3,2 C 9,0 km/h (2 Bft) 97,21 %
29.04.2017 06:00 3,3 C 8,3 C 95 % 1019,3 hPa 0,0 l/m 5,3 km/h (1 Bft) W 0,00 h 0,000 mm 0,0 UV-I 28 W/m 2,6 C 3,2 C 8,0 km/h (2 Bft) 95,64 %
29.04.2017 07:00 4,2 C 8,3 C 94 % 1019,4 hPa 0,0 l/m 7,0 km/h (2 Bft) W-SW 0,80 h 0,025 mm 0,0 UV-I 166 W/m 3,3 C 3,3 C 10,8 km/h (2 Bft) 98,13 %
29.04.2017 08:00 5,1 C 8,3 C 90 % 1019,5 hPa 0,0 l/m 6,0 km/h (2 Bft) W-SW 0,87 h 0,077 mm 0,7 UV-I 314 W/m 3,7 C 4,7 C 10,2 km/h (2 Bft) 97,24 %
29.04.2017 09:00 6,2 C 8,3 C 87 % 1019,6 hPa 0,0 l/m 4,2 km/h (1 Bft) W-SW 0,53 h 0,127 mm 1,0 UV-I 334 W/m 4,2 C 6,1 C 8,3 km/h (2 Bft) 95,47 %
29.04.2017 10:00 7,3 C 8,7 C 83 % 1019,7 hPa 0,0 l/m 4,8 km/h (1 Bft) W 0,30 h 0,152 mm 1,5 UV-I 370 W/m 4,6 C 7,0 C 9,1 km/h (2 Bft) 96,25 %
29.04.2017 11:00 8,2 C 8,9 C 79 % 1019,4 hPa 0,0 l/m 3,6 km/h (1 Bft) W 0,37 h 0,178 mm 2,1 UV-I 450 W/m 4,8 C 8,1 C 7,9 km/h (2 Bft) 97,80 %
29.04.2017 12:00 9,0 C 9,1 C 74 % 1018,9 hPa 0,0 l/m 4,0 km/h (1 Bft) W-NW 0,40 h 0,203 mm 2,2 UV-I 474 W/m 4,7 C 8,9 C 8,5 km/h (2 Bft) 97,12 %
29.04.2017 13:00 8,7 C 9,4 C 75 % 1018,6 hPa 0,0 l/m 4,3 km/h (1 Bft) S-SW 0,17 h 0,229 mm 1,6 UV-I 359 W/m 4,5 C 8,6 C 7,8 km/h (2 Bft) 97,62 %
29.04.2017 14:00 8,9 C 9,4 C 75 % 1018,4 hPa 1,0 l/m 2,2 km/h (1 Bft) O-SO 0,33 h 0,152 mm 1,9 UV-I 410 W/m 4,7 C 8,8 C 5,1 km/h (1 Bft) 94,17 %
29.04.2017 15:00 9,6 C 9,4 C 72 % 1018,0 hPa 0,0 l/m 3,9 km/h (1 Bft) W-SW 0,13 h 0,203 mm 1,2 UV-I 316 W/m 4,8 C 9,2 C 7,4 km/h (2 Bft) 96,39 %
29.04.2017 16:00 10,5 C 9,9 C 60 % 1017,8 hPa 0,0 l/m 3,6 km/h (1 Bft) W-SW 0,43 h 0,153 mm 1,3 UV-I 403 W/m 3,0 C 10,4 C 6,6 km/h (2 Bft) 97,10 %
29.04.2017 17:00 10,1 C 10,0 C 65 % 1017,8 hPa 0,0 l/m 2,2 km/h (1 Bft) NW 0,00 h 0,203 mm 0,6 UV-I 178 W/m 3,9 C 10,1 C 5,4 km/h (1 Bft) 97,10 %
29.04.2017 18:00 9,4 C 10,0 C 71 % 1017,5 hPa 0,0 l/m 1,0 km/h (0 Bft) N-NO 0,00 h 0,101 mm 0,0 UV-I 90 W/m 4,5 C 9,4 C 3,4 km/h (1 Bft) 97,11 %
29.04.2017 19:00 9,3 C 10,0 C 74 % 1017,4 hPa 0,0 l/m 1,2 km/h (1 Bft) N-NO 0,80 h 0,051 mm 0,0 UV-I 75 W/m 4,8 C 9,3 C 2,6 km/h (1 Bft) 95,59 %
29.04.2017 20:00 6,8 C 10,0 C 86 % 1017,6 hPa 0,0 l/m 2,6 km/h (1 Bft) N-NO 0,08 h 0,051 mm 0,0 UV-I 9 W/m 4,6 C 6,8 C 3,7 km/h (1 Bft) 95,98 %
29.04.2017 21:00 5,2 C 10,0 C 91 % 1017,8 hPa 0,0 l/m 1,4 km/h (1 Bft) SO 0,00 h 0,000 mm 0,0 UV-I 0 W/m 3,8 C 5,2 C 2,5 km/h (1 Bft) 95,72 %
29.04.2017 22:00 4,1 C 9,4 C 93 % 1017,7 hPa 0,0 l/m 1,0 km/h (0 Bft) SO 0,00 h 0,000 mm 0,0 UV-I 0 W/m 3,0 C 4,1 C 1,9 km/h (1 Bft) 97,46 %
29.04.2017 23:00 3,2 C 9,4 C 94 % 1017,7 hPa 0,0 l/m 0,9 km/h (0 Bft) SO 0,00 h 0,000 mm 0,0 UV-I 0 W/m 2,3 C 3,2 C 1,9 km/h (1 Bft) 94,59 %
30.04.2017 00:00 2,3 C 9,4 C 95 % 1017,7 hPa 0,0 l/m 1,1 km/h (1 Bft) SO 0,00 h 0,000 mm 0,0 UV-I 0 W/m 1,6 C 2,3 C 2,0 km/h (1 Bft) 94,54 %
30.04.2017 01:00 1,8 C 9,4 C 96 % 1017,6 hPa 0,0 l/m 0,9 km/h (0 Bft) SO 0,00 h 0,000 mm 0,0 UV-I 0 W/m 1,2 C 1,8 C 1,8 km/h (1 Bft) 96,63 %
30.04.2017 02:00 1,6 C 9,4 C 96 % 1017,4 hPa 0,0 l/m 2,5 km/h (1 Bft) SO 0,00 h 0,000 mm 0,0 UV-I 0 W/m 1,0 C 1,6 C 4,2 km/h (1 Bft) 97,82 %
30.04.2017 03:00 1,7 C 9,4 C 96 % 1017,3 hPa 0,0 l/m 2,9 km/h (1 Bft) O 0,00 h 0,000 mm 0,0 UV-I 0 W/m 1,1 C 1,7 C 4,3 km/h (1 Bft) 96,12 %
30.04.2017 04:00 1,6 C 9,0 C 96 % 1017,3 hPa 0,0 l/m 4,2 km/h (1 Bft) O-NO 0,00 h 0,000 mm 0,0 UV-I 0 W/m 1,0 C 1,6 C 6,0 km/h (2 Bft) 98,01 %
30.04.2017 05:00 0,9 C 8,9 C 97 % 1017,2 hPa 0,0 l/m 2,6 km/h (1 Bft) O-NO 0,03 h 0,000 mm 0,0 UV-I 8 W/m 0,5 C 0,9 C 4,0 km/h (1 Bft) 97,81 %
30.04.2017 06:00 0,7 C 8,9 C 97 % 1017,1 hPa 0,0 l/m 3,8 km/h (1 Bft) O-NO 0,70 h 0,000 mm 0,0 UV-I 63 W/m 0,3 C 0,7 C 5,6 km/h (1 Bft) 94,87 %
30.04.2017 07:00 2,0 C 8,9 C 97 % 1016,9 hPa 0,2 l/m 7,6 km/h (2 Bft) O-NO 1,00 h 0,025 mm 0,5 UV-I 211 W/m 1,6 C 0,7 C 11,3 km/h (2 Bft) 97,23 %
30.04.2017 08:00 4,7 C 9,1 C 90 % 1016,6 hPa 0,0 l/m 13,1 km/h (3 Bft) O-NO 1,00 h 0,077 mm 0,9 UV-I 403 W/m 3,1 C 0,1 C 19,0 km/h (3 Bft) 95,95 %
30.04.2017 09:00 7,9 C 9,4 C 77 % 1016,3 hPa 0,0 l/m 22,3 km/h (4 Bft) NO 1,00 h 0,177 mm 1,7 UV-I 586 W/m 4,1 C -0,1 C 31,7 km/h (5 Bft) 96,07 %
30.04.2017 10:00 10,3 C 9,4 C 67 % 1015,7 hPa 0,0 l/m 23,4 km/h (4 Bft) O-NO 1,00 h 0,305 mm 2,7 UV-I 729 W/m 4,5 C 2,7 C 31,8 km/h (5 Bft) 97,08 %
30.04.2017 11:00 11,9 C 9,4 C 60 % 1015,2 hPa 0,0 l/m 22,5 km/h (4 Bft) NO 1,00 h 0,407 mm 3,7 UV-I 826 W/m 4,3 C 5,1 C 31,2 km/h (5 Bft) 97,37 %
30.04.2017 12:00 13,5 C 9,8 C 55 % 1014,6 hPa 0,0 l/m 21,1 km/h (4 Bft) O-NO 1,00 h 0,508 mm 4,3 UV-I 877 W/m 4,6 C 7,5 C 31,0 km/h (5 Bft) 94,54 %
30.04.2017 13:00 14,5 C 10,0 C 53 % 1013,8 hPa 0,0 l/m 22,5 km/h (4 Bft) O-NO 1,00 h 0,558 mm 4,2 UV-I 872 W/m 5,1 C 8,6 C 32,5 km/h (5 Bft) 94,37 %
30.04.2017 14:00 15,3 C 10,0 C 53 % 1013,0 hPa 0,0 l/m 25,7 km/h (4 Bft) NO 1,00 h 0,585 mm 3,7 UV-I 816 W/m 5,7 C 8,9 C 37,5 km/h (5 Bft) 97,02 %
30.04.2017 15:00 15,8 C 9,4 C 50 % 1012,2 hPa 0,0 l/m 26,7 km/h (4 Bft) NO 1,00 h 0,558 mm 2,8 UV-I 711 W/m 5,4 C 9,5 C 38,1 km/h (5 Bft) 96,53 %
30.04.2017 16:00 16,2 C 9,9 C 47 % 1011,4 hPa 0,0 l/m 25,9 km/h (4 Bft) NO 1,00 h 0,534 mm 1,8 UV-I 570 W/m 4,8 C 10,1 C 38,2 km/h (5 Bft) 98,15 %
30.04.2017 17:00 15,8 C 11,7 C 47 % 1010,7 hPa 0,0 l/m 27,5 km/h (4 Bft) O-NO 1,00 h 0,482 mm 1,0 UV-I 399 W/m 4,4 C 9,3 C 39,4 km/h (6 Bft) 96,22 %
30.04.2017 18:00 15,1 C 11,7 C 48 % 1010,2 hPa 0,0 l/m 24,3 km/h (4 Bft) O-NO 1,00 h 0,381 mm 0,5 UV-I 218 W/m 4,2 C 9,0 C 34,8 km/h (5 Bft) 95,90 %
30.04.2017 19:00 13,8 C 11,7 C 51 % 1009,8 hPa 0,0 l/m 24,9 km/h (4 Bft) O-NO 0,97 h 0,254 mm 0,0 UV-I 71 W/m 3,9 C 7,1 C 35,3 km/h (5 Bft) 94,01 %
30.04.2017 20:00 12,1 C 11,7 C 56 % 1009,5 hPa 0,0 l/m 22,4 km/h (4 Bft) O-NO 0,10 h 0,178 mm 0,0 UV-I 10 W/m 3,5 C 5,3 C 31,9 km/h (5 Bft) 96,45 %
30.04.2017 21:00 10,8 C 11,1 C 59 % 1009,2 hPa 0,0 l/m 20,5 km/h (4 Bft) O-NO 0,00 h 0,127 mm 0,0 UV-I 0 W/m 3,2 C 4,2 C 30,2 km/h (5 Bft) 95,59 %
30.04.2017 22:00 9,9 C 11,1 C 62 % 1008,9 hPa 0,0 l/m 19,7 km/h (3 Bft) NO 0,00 h 0,102 mm 0,0 UV-I 0 W/m 3,0 C 3,2 C 27,5 km/h (4 Bft) 98,17 %
30.04.2017 23:00 9,0 C 11,1 C 66 % 1008,7 hPa 0,0 l/m 17,6 km/h (3 Bft) O-NO 0,00 h 0,076 mm 0,0 UV-I 0 W/m 2,9 C 2,8 C 25,4 km/h (4 Bft) 94,59 %
Min-Datum _ 24.04.17 24.04.17 30.04.17 26.04.17 - 24.04.17 - - - - - 24.04.17 28.04.17 24.04.17 30.04.17
_ Min-Zeit 06:10 00:00 16:14 02:48 - 04:18 - - - - - 06:00 21:12 04:18 00:02
Minimum _ -0,1 C 0,0 C 45 % 1004,1 hPa - 0,0 km/h (0 Bft) - - - - - -0,9 C -7,3 C 0,0 km/h (0 Bft) 9,09 %
Max-Datum _ 25.04.17 25.04.17 28.04.17 24.04.17 28.04.17 30.04.17 - 30.04.17 30.04.17 25.04.17 29.04.17 25.04.17 25.04.17 30.04.17 24.04.17
_ Max-Zeit 13:14 16:36 07:08 00:04 02:00 17:26 - 14:36 14:00 12:30 13:22 14:26 13:12 17:16 00:12
Maximum _ 18,0 C 17,2 C 98 % 1023,3 hPa 2,4 l/m 33,7 km/h
O-NO (5 Bft)
- 0,10 h 0,585 mm 4,8 UV-I 1085 W/m 11,0 C 17,9 C 53,1 km/h
NO (7 Bft)
100,00 %
Durchschnitt _ 6,8 C 7,4 C 84 % 1012,4 hPa #40,0 l/m 5,7 km/h (1 Bft) O-NO #39:57 h #15,417 mm 1,7 UV-I 255 W/m 4,0 C 5,7 C 9,4 km/h (2 Bft) 96,66 %